sensor_id;sensor_type;location;lat;lon;timestamp;P1;durP1;ratioP1;P2;durP2;ratioP2
20810;SDS011;10566;52.928;10.522;2023-03-01T00:01:50;12.83;;;6.10;;
20810;SDS011;10566;52.928;10.522;2023-03-01T00:04:16;14.93;;;6.77;;
20810;SDS011;10566;52.928;10.522;2023-03-01T00:06:43;10.13;;;5.97;;
20810;SDS011;10566;52.928;10.522;2023-03-01T00:09:13;11.63;;;6.37;;
20810;SDS011;10566;52.928;10.522;2023-03-01T00:11:44;11.33;;;5.67;;
20810;SDS011;10566;52.928;10.522;2023-03-01T00:14:10;13.20;;;6.47;;
20810;SDS011;10566;52.928;10.522;2023-03-01T00:16:38;11.73;;;6.17;;
20810;SDS011;10566;52.928;10.522;2023-03-01T00:19:05;11.37;;;6.27;;
20810;SDS011;10566;52.928;10.522;2023-03-01T00:21:31;11.50;;;5.83;;
20810;SDS011;10566;52.928;10.522;2023-03-01T00:23:58;11.43;;;6.13;;
20810;SDS011;10566;52.928;10.522;2023-03-01T00:26:25;13.37;;;6.07;;
20810;SDS011;10566;52.928;10.522;2023-03-01T00:28:52;11.73;;;5.93;;
20810;SDS011;10566;52.928;10.522;2023-03-01T00:31:21;12.67;;;6.17;;
20810;SDS011;10566;52.928;10.522;2023-03-01T00:33:48;13.47;;;6.23;;
20810;SDS011;10566;52.928;10.522;2023-03-01T00:36:14;13.20;;;6.07;;
20810;SDS011;10566;52.928;10.522;2023-03-01T00:38:41;12.57;;;6.70;;
20810;SDS011;10566;52.928;10.522;2023-03-01T00:41:09;12.67;;;6.17;;
20810;SDS011;10566;52.928;10.522;2023-03-01T00:43:35;12.77;;;5.97;;
20810;SDS011;10566;52.928;10.522;2023-03-01T00:46:06;13.53;;;6.50;;
20810;SDS011;10566;52.928;10.522;2023-03-01T00:48:33;11.73;;;5.73;;
20810;SDS011;10566;52.928;10.522;2023-03-01T00:53:35;11.60;;;5.60;;
20810;SDS011;10566;52.928;10.522;2023-03-01T00:56:01;12.70;;;6.40;;
20810;SDS011;10566;52.928;10.522;2023-03-01T00:58:28;9.93;;;5.77;;
20810;SDS011;10566;52.928;10.522;2023-03-01T01:00:54;14.03;;;6.00;;
20810;SDS011;10566;52.928;10.522;2023-03-01T01:03:20;13.20;;;5.53;;
20810;SDS011;10566;52.928;10.522;2023-03-01T01:05:47;12.07;;;6.10;;
20810;SDS011;10566;52.928;10.522;2023-03-01T01:08:13;11.37;;;5.97;;
20810;SDS011;10566;52.928;10.522;2023-03-01T01:10:39;11.33;;;5.83;;
20810;SDS011;10566;52.928;10.522;2023-03-01T01:13:05;9.50;;;5.27;;
20810;SDS011;10566;52.928;10.522;2023-03-01T01:15:34;12.20;;;5.90;;
20810;SDS011;10566;52.928;10.522;2023-03-01T01:18:00;11.83;;;6.03;;
20810;SDS011;10566;52.928;10.522;2023-03-01T01:20:27;11.03;;;6.03;;
20810;SDS011;10566;52.928;10.522;2023-03-01T01:22:53;11.70;;;6.00;;
20810;SDS011;10566;52.928;10.522;2023-03-01T01:25:19;11.67;;;6.13;;
20810;SDS011;10566;52.928;10.522;2023-03-01T01:27:45;10.37;;;5.63;;
20810;SDS011;10566;52.928;10.522;2023-03-01T01:30:11;11.33;;;6.07;;
20810;SDS011;10566;52.928;10.522;2023-03-01T01:32:38;11.77;;;6.17;;
20810;SDS011;10566;52.928;10.522;2023-03-01T01:35:04;12.23;;;6.43;;
20810;SDS011;10566;52.928;10.522;2023-03-01T01:37:30;12.37;;;6.63;;
20810;SDS011;10566;52.928;10.522;2023-03-01T01:39:57;13.77;;;6.10;;
20810;SDS011;10566;52.928;10.522;2023-03-01T01:42:24;11.40;;;5.67;;
20810;SDS011;10566;52.928;10.522;2023-03-01T01:45:33;11.77;;;6.00;;
20810;SDS011;10566;52.928;10.522;2023-03-01T01:47:40;12.10;;;5.90;;
20810;SDS011;10566;52.928;10.522;2023-03-01T01:50:08;12.87;;;5.97;;
20810;SDS011;10566;52.928;10.522;2023-03-01T01:52:40;11.13;;;5.60;;
20810;SDS011;10566;52.928;10.522;2023-03-01T01:55:14;12.40;;;5.80;;
20810;SDS011;10566;52.928;10.522;2023-03-01T01:57:45;11.50;;;6.13;;
20810;SDS011;10566;52.928;10.522;2023-03-01T02:00:13;11.23;;;5.87;;
20810;SDS011;10566;52.928;10.522;2023-03-01T02:02:40;13.67;;;5.60;;
20810;SDS011;10566;52.928;10.522;2023-03-01T02:07:56;10.63;;;5.50;;
20810;SDS011;10566;52.928;10.522;2023-03-01T02:10:23;12.30;;;6.23;;
20810;SDS011;10566;52.928;10.522;2023-03-01T02:12:51;11.87;;;6.47;;
20810;SDS011;10566;52.928;10.522;2023-03-01T02:15:18;11.90;;;5.70;;
20810;SDS011;10566;52.928;10.522;2023-03-01T02:17:45;11.27;;;6.00;;
20810;SDS011;10566;52.928;10.522;2023-03-01T02:20:30;12.37;;;6.10;;
20810;SDS011;10566;52.928;10.522;2023-03-01T02:23:08;14.00;;;6.23;;
20810;SDS011;10566;52.928;10.522;2023-03-01T02:30:47;13.87;;;5.87;;
20810;SDS011;10566;52.928;10.522;2023-03-01T02:33:33;14.77;;;6.83;;
20810;SDS011;10566;52.928;10.522;2023-03-01T02:36:12;10.63;;;5.83;;
20810;SDS011;10566;52.928;10.522;2023-03-01T02:38:41;11.87;;;6.10;;
20810;SDS011;10566;52.928;10.522;2023-03-01T02:41:10;11.40;;;5.90;;
20810;SDS011;10566;52.928;10.522;2023-03-01T02:43:38;12.10;;;5.53;;
20810;SDS011;10566;52.928;10.522;2023-03-01T02:46:06;8.23;;;5.10;;
20810;SDS011;10566;52.928;10.522;2023-03-01T02:48:43;10.93;;;5.57;;
20810;SDS011;10566;52.928;10.522;2023-03-01T02:56:52;10.80;;;5.37;;
20810;SDS011;10566;52.928;10.522;2023-03-01T02:59:22;11.67;;;5.27;;
20810;SDS011;10566;52.928;10.522;2023-03-01T03:01:50;9.83;;;5.07;;
20810;SDS011;10566;52.928;10.522;2023-03-01T03:04:17;11.70;;;5.10;;
20810;SDS011;10566;52.928;10.522;2023-03-01T03:06:45;9.80;;;5.20;;
20810;SDS011;10566;52.928;10.522;2023-03-01T03:09:12;10.20;;;4.97;;
20810;SDS011;10566;52.928;10.522;2023-03-01T03:11:43;11.33;;;5.20;;
20810;SDS011;10566;52.928;10.522;2023-03-01T03:14:15;10.27;;;5.10;;
20810;SDS011;10566;52.928;10.522;2023-03-01T03:16:44;11.33;;;5.17;;
20810;SDS011;10566;52.928;10.522;2023-03-01T03:19:11;10.10;;;5.07;;
20810;SDS011;10566;52.928;10.522;2023-03-01T03:21:37;10.63;;;4.93;;
20810;SDS011;10566;52.928;10.522;2023-03-01T03:24:03;10.20;;;4.73;;
20810;SDS011;10566;52.928;10.522;2023-03-01T03:26:30;9.17;;;4.63;;
20810;SDS011;10566;52.928;10.522;2023-03-01T03:28:57;12.03;;;5.00;;
20810;SDS011;10566;52.928;10.522;2023-03-01T03:31:25;9.70;;;4.63;;
20810;SDS011;10566;52.928;10.522;2023-03-01T03:33:54;10.67;;;4.47;;
20810;SDS011;10566;52.928;10.522;2023-03-01T03:36:23;9.80;;;5.00;;
20810;SDS011;10566;52.928;10.522;2023-03-01T03:38:51;12.13;;;5.40;;
20810;SDS011;10566;52.928;10.522;2023-03-01T03:41:18;10.77;;;4.70;;
20810;SDS011;10566;52.928;10.522;2023-03-01T03:43:47;11.00;;;4.77;;
20810;SDS011;10566;52.928;10.522;2023-03-01T03:46:14;9.60;;;4.70;;
20810;SDS011;10566;52.928;10.522;2023-03-01T03:48:43;12.30;;;4.70;;
20810;SDS011;10566;52.928;10.522;2023-03-01T03:51:10;12.90;;;5.33;;
20810;SDS011;10566;52.928;10.522;2023-03-01T03:53:37;12.37;;;5.40;;
20810;SDS011;10566;52.928;10.522;2023-03-01T03:56:11;12.03;;;5.27;;
20810;SDS011;10566;52.928;10.522;2023-03-01T03:58:40;12.97;;;4.87;;
20810;SDS011;10566;52.928;10.522;2023-03-01T04:01:06;8.57;;;4.27;;
20810;SDS011;10566;52.928;10.522;2023-03-01T04:03:33;9.50;;;4.80;;
20810;SDS011;10566;52.928;10.522;2023-03-01T04:06:02;9.93;;;4.57;;
20810;SDS011;10566;52.928;10.522;2023-03-01T04:08:29;10.07;;;4.80;;
20810;SDS011;10566;52.928;10.522;2023-03-01T04:11:01;10.03;;;4.53;;
20810;SDS011;10566;52.928;10.522;2023-03-01T04:13:49;12.87;;;4.43;;
20810;SDS011;10566;52.928;10.522;2023-03-01T04:16:15;13.17;;;4.60;;
20810;SDS011;10566;52.928;10.522;2023-03-01T04:18:42;9.63;;;4.73;;
20810;SDS011;10566;52.928;10.522;2023-03-01T04:21:09;10.10;;;5.00;;
20810;SDS011;10566;52.928;10.522;2023-03-01T04:23:36;10.50;;;4.80;;
20810;SDS011;10566;52.928;10.522;2023-03-01T04:26:02;12.97;;;5.27;;
20810;SDS011;10566;52.928;10.522;2023-03-01T04:28:39;10.73;;;5.43;;
20810;SDS011;10566;52.928;10.522;2023-03-01T04:31:11;10.23;;;5.07;;
20810;SDS011;10566;52.928;10.522;2023-03-01T04:33:41;12.10;;;5.20;;
20810;SDS011;10566;52.928;10.522;2023-03-01T04:36:08;11.07;;;5.47;;
20810;SDS011;10566;52.928;10.522;2023-03-01T04:38:35;11.07;;;5.37;;
20810;SDS011;10566;52.928;10.522;2023-03-01T04:41:02;13.77;;;5.23;;
20810;SDS011;10566;52.928;10.522;2023-03-01T04:43:28;11.23;;;5.27;;
20810;SDS011;10566;52.928;10.522;2023-03-01T04:46:08;9.97;;;4.87;;
20810;SDS011;10566;52.928;10.522;2023-03-01T04:48:39;12.30;;;5.10;;
20810;SDS011;10566;52.928;10.522;2023-03-01T04:51:05;10.00;;;4.67;;
20810;SDS011;10566;52.928;10.522;2023-03-01T04:53:34;9.67;;;4.63;;
20810;SDS011;10566;52.928;10.522;2023-03-01T04:56:04;8.67;;;4.50;;
20810;SDS011;10566;52.928;10.522;2023-03-01T04:58:31;8.30;;;3.83;;
20810;SDS011;10566;52.928;10.522;2023-03-01T05:00:57;9.30;;;4.93;;
20810;SDS011;10566;52.928;10.522;2023-03-01T05:03:23;10.83;;;4.93;;
20810;SDS011;10566;52.928;10.522;2023-03-01T05:05:50;10.10;;;5.17;;
20810;SDS011;10566;52.928;10.522;2023-03-01T05:08:17;10.43;;;4.90;;
20810;SDS011;10566;52.928;10.522;2023-03-01T05:10:44;10.27;;;4.90;;
20810;SDS011;10566;52.928;10.522;2023-03-01T05:13:11;11.37;;;4.87;;
20810;SDS011;10566;52.928;10.522;2023-03-01T05:15:38;10.93;;;4.87;;
20810;SDS011;10566;52.928;10.522;2023-03-01T05:18:04;9.27;;;4.63;;
20810;SDS011;10566;52.928;10.522;2023-03-01T05:20:36;8.03;;;4.40;;
20810;SDS011;10566;52.928;10.522;2023-03-01T05:23:02;8.23;;;4.37;;
20810;SDS011;10566;52.928;10.522;2023-03-01T05:25:30;8.27;;;4.47;;
20810;SDS011;10566;52.928;10.522;2023-03-01T05:27:57;9.23;;;4.80;;
20810;SDS011;10566;52.928;10.522;2023-03-01T05:30:23;9.17;;;4.37;;
20810;SDS011;10566;52.928;10.522;2023-03-01T05:32:50;9.47;;;4.33;;
20810;SDS011;10566;52.928;10.522;2023-03-01T05:35:20;10.73;;;4.60;;
20810;SDS011;10566;52.928;10.522;2023-03-01T05:37:47;11.27;;;4.33;;
20810;SDS011;10566;52.928;10.522;2023-03-01T05:40:15;11.10;;;4.50;;
20810;SDS011;10566;52.928;10.522;2023-03-01T05:42:46;12.00;;;5.23;;
20810;SDS011;10566;52.928;10.522;2023-03-01T05:45:13;9.37;;;4.80;;
20810;SDS011;10566;52.928;10.522;2023-03-01T05:47:40;9.20;;;4.50;;
20810;SDS011;10566;52.928;10.522;2023-03-01T05:52:45;8.47;;;4.03;;
20810;SDS011;10566;52.928;10.522;2023-03-01T05:55:11;12.03;;;4.50;;
20810;SDS011;10566;52.928;10.522;2023-03-01T05:57:37;10.87;;;4.40;;
20810;SDS011;10566;52.928;10.522;2023-03-01T06:00:03;10.57;;;4.60;;
20810;SDS011;10566;52.928;10.522;2023-03-01T06:02:31;7.17;;;3.80;;
20810;SDS011;10566;52.928;10.522;2023-03-01T06:04:57;9.73;;;5.10;;
20810;SDS011;10566;52.928;10.522;2023-03-01T06:07:23;10.03;;;4.70;;
20810;SDS011;10566;52.928;10.522;2023-03-01T06:09:49;11.70;;;4.77;;
20810;SDS011;10566;52.928;10.522;2023-03-01T06:12:15;11.33;;;4.37;;
20810;SDS011;10566;52.928;10.522;2023-03-01T06:14:42;9.07;;;4.27;;
20810;SDS011;10566;52.928;10.522;2023-03-01T06:17:08;8.60;;;4.83;;
20810;SDS011;10566;52.928;10.522;2023-03-01T06:19:34;11.63;;;4.80;;
20810;SDS011;10566;52.928;10.522;2023-03-01T06:22:00;8.60;;;4.40;;
20810;SDS011;10566;52.928;10.522;2023-03-01T06:24:26;9.00;;;4.30;;
20810;SDS011;10566;52.928;10.522;2023-03-01T06:26:53;13.00;;;4.90;;
20810;SDS011;10566;52.928;10.522;2023-03-01T06:29:20;11.27;;;4.20;;
20810;SDS011;10566;52.928;10.522;2023-03-01T06:31:47;8.70;;;4.33;;
20810;SDS011;10566;52.928;10.522;2023-03-01T06:34:13;9.57;;;5.00;;
20810;SDS011;10566;52.928;10.522;2023-03-01T06:36:39;7.93;;;4.40;;
20810;SDS011;10566;52.928;10.522;2023-03-01T06:39:06;10.93;;;4.47;;
20810;SDS011;10566;52.928;10.522;2023-03-01T06:41:32;11.10;;;4.67;;
20810;SDS011;10566;52.928;10.522;2023-03-01T06:43:58;12.23;;;4.70;;
20810;SDS011;10566;52.928;10.522;2023-03-01T06:46:25;11.70;;;4.87;;
20810;SDS011;10566;52.928;10.522;2023-03-01T06:48:51;13.43;;;5.33;;
20810;SDS011;10566;52.928;10.522;2023-03-01T06:51:17;13.60;;;6.47;;
20810;SDS011;10566;52.928;10.522;2023-03-01T06:53:43;16.10;;;6.73;;
20810;SDS011;10566;52.928;10.522;2023-03-01T06:56:09;24.73;;;11.40;;
20810;SDS011;10566;52.928;10.522;2023-03-01T06:58:35;22.83;;;8.53;;
20810;SDS011;10566;52.928;10.522;2023-03-01T07:01:04;15.47;;;7.20;;
20810;SDS011;10566;52.928;10.522;2023-03-01T07:03:31;17.80;;;7.60;;
20810;SDS011;10566;52.928;10.522;2023-03-01T07:05:57;20.50;;;8.70;;
20810;SDS011;10566;52.928;10.522;2023-03-01T07:08:23;21.00;;;9.50;;
20810;SDS011;10566;52.928;10.522;2023-03-01T07:10:54;26.27;;;11.30;;
20810;SDS011;10566;52.928;10.522;2023-03-01T07:13:20;25.37;;;11.03;;
20810;SDS011;10566;52.928;10.522;2023-03-01T07:15:46;22.53;;;10.77;;
20810;SDS011;10566;52.928;10.522;2023-03-01T07:18:12;21.47;;;10.20;;
20810;SDS011;10566;52.928;10.522;2023-03-01T07:20:38;16.90;;;8.80;;
20810;SDS011;10566;52.928;10.522;2023-03-01T07:23:05;19.07;;;8.50;;
20810;SDS011;10566;52.928;10.522;2023-03-01T07:25:31;17.30;;;7.83;;
20810;SDS011;10566;52.928;10.522;2023-03-01T07:27:57;17.30;;;8.47;;
20810;SDS011;10566;52.928;10.522;2023-03-01T07:30:24;15.40;;;8.33;;
20810;SDS011;10566;52.928;10.522;2023-03-01T07:32:52;16.70;;;8.83;;
20810;SDS011;10566;52.928;10.522;2023-03-01T07:35:18;15.83;;;8.53;;
20810;SDS011;10566;52.928;10.522;2023-03-01T07:37:44;16.53;;;8.57;;
20810;SDS011;10566;52.928;10.522;2023-03-01T07:40:10;13.23;;;7.80;;
20810;SDS011;10566;52.928;10.522;2023-03-01T07:42:37;15.40;;;7.97;;
20810;SDS011;10566;52.928;10.522;2023-03-01T07:45:03;14.57;;;7.73;;
20810;SDS011;10566;52.928;10.522;2023-03-01T07:47:30;15.73;;;6.87;;
20810;SDS011;10566;52.928;10.522;2023-03-01T07:49:56;14.33;;;7.77;;
20810;SDS011;10566;52.928;10.522;2023-03-01T07:52:22;13.27;;;7.17;;
20810;SDS011;10566;52.928;10.522;2023-03-01T07:54:48;12.50;;;6.77;;
20810;SDS011;10566;52.928;10.522;2023-03-01T07:57:14;12.23;;;6.77;;
20810;SDS011;10566;52.928;10.522;2023-03-01T07:59:40;12.17;;;6.40;;
20810;SDS011;10566;52.928;10.522;2023-03-01T08:02:06;12.73;;;6.93;;
20810;SDS011;10566;52.928;10.522;2023-03-01T08:04:32;12.43;;;6.10;;
20810;SDS011;10566;52.928;10.522;2023-03-01T08:06:58;9.93;;;6.20;;
20810;SDS011;10566;52.928;10.522;2023-03-01T08:09:24;11.57;;;5.70;;
20810;SDS011;10566;52.928;10.522;2023-03-01T08:11:51;11.13;;;6.10;;
20810;SDS011;10566;52.928;10.522;2023-03-01T08:14:17;10.97;;;5.97;;
20810;SDS011;10566;52.928;10.522;2023-03-01T08:16:43;10.07;;;5.50;;
20810;SDS011;10566;52.928;10.522;2023-03-01T08:19:09;9.93;;;5.43;;
20810;SDS011;10566;52.928;10.522;2023-03-01T08:21:36;10.70;;;5.80;;
20810;SDS011;10566;52.928;10.522;2023-03-01T08:24:03;10.57;;;6.10;;
20810;SDS011;10566;52.928;10.522;2023-03-01T08:26:29;10.43;;;5.77;;
20810;SDS011;10566;52.928;10.522;2023-03-01T08:28:56;9.77;;;5.47;;
20810;SDS011;10566;52.928;10.522;2023-03-01T08:31:23;9.80;;;5.23;;
20810;SDS011;10566;52.928;10.522;2023-03-01T08:33:51;9.27;;;5.40;;
20810;SDS011;10566;52.928;10.522;2023-03-01T08:36:20;8.90;;;4.97;;
20810;SDS011;10566;52.928;10.522;2023-03-01T08:38:46;8.23;;;4.80;;
20810;SDS011;10566;52.928;10.522;2023-03-01T08:41:12;8.97;;;5.00;;
20810;SDS011;10566;52.928;10.522;2023-03-01T08:43:39;8.47;;;4.77;;
20810;SDS011;10566;52.928;10.522;2023-03-01T08:46:05;8.40;;;4.63;;
20810;SDS011;10566;52.928;10.522;2023-03-01T08:48:31;9.37;;;5.03;;
20810;SDS011;10566;52.928;10.522;2023-03-01T08:51:06;9.13;;;5.13;;
20810;SDS011;10566;52.928;10.522;2023-03-01T08:53:32;10.07;;;4.77;;
20810;SDS011;10566;52.928;10.522;2023-03-01T08:55:59;8.87;;;4.90;;
20810;SDS011;10566;52.928;10.522;2023-03-01T08:58:27;10.03;;;5.40;;
20810;SDS011;10566;52.928;10.522;2023-03-01T09:00:53;8.90;;;4.67;;
20810;SDS011;10566;52.928;10.522;2023-03-01T09:03:21;9.97;;;4.63;;
20810;SDS011;10566;52.928;10.522;2023-03-01T09:05:47;9.20;;;5.87;;
20810;SDS011;10566;52.928;10.522;2023-03-01T09:08:15;9.50;;;5.43;;
20810;SDS011;10566;52.928;10.522;2023-03-01T09:10:41;11.43;;;5.73;;
20810;SDS011;10566;52.928;10.522;2023-03-01T09:13:07;9.03;;;4.93;;
20810;SDS011;10566;52.928;10.522;2023-03-01T09:15:33;8.97;;;5.47;;
20810;SDS011;10566;52.928;10.522;2023-03-01T09:17:59;8.50;;;4.87;;
20810;SDS011;10566;52.928;10.522;2023-03-01T09:20:25;9.07;;;5.03;;
20810;SDS011;10566;52.928;10.522;2023-03-01T09:22:51;8.30;;;4.60;;
20810;SDS011;10566;52.928;10.522;2023-03-01T09:25:17;9.03;;;4.73;;
20810;SDS011;10566;52.928;10.522;2023-03-01T09:27:43;9.13;;;4.17;;
20810;SDS011;10566;52.928;10.522;2023-03-01T09:30:09;8.00;;;4.00;;
20810;SDS011;10566;52.928;10.522;2023-03-01T09:32:35;7.27;;;3.70;;
20810;SDS011;10566;52.928;10.522;2023-03-01T09:35:01;6.93;;;3.80;;
20810;SDS011;10566;52.928;10.522;2023-03-01T09:37:31;8.67;;;4.33;;
20810;SDS011;10566;52.928;10.522;2023-03-01T09:39:57;7.07;;;3.53;;
20810;SDS011;10566;52.928;10.522;2023-03-01T09:42:23;6.97;;;3.17;;
20810;SDS011;10566;52.928;10.522;2023-03-01T09:47:17;7.27;;;3.80;;
20810;SDS011;10566;52.928;10.522;2023-03-01T09:49:45;7.90;;;4.60;;
20810;SDS011;10566;52.928;10.522;2023-03-01T09:52:23;8.63;;;5.10;;
20810;SDS011;10566;52.928;10.522;2023-03-01T09:54:53;9.20;;;4.37;;
20810;SDS011;10566;52.928;10.522;2023-03-01T09:57:27;8.17;;;4.70;;
20810;SDS011;10566;52.928;10.522;2023-03-01T10:00:03;8.83;;;5.00;;
20810;SDS011;10566;52.928;10.522;2023-03-01T10:02:42;12.83;;;7.10;;
20810;SDS011;10566;52.928;10.522;2023-03-01T10:05:22;13.23;;;6.70;;
20810;SDS011;10566;52.928;10.522;2023-03-01T10:10:34;14.80;;;6.40;;
20810;SDS011;10566;52.928;10.522;2023-03-01T10:13:13;8.17;;;4.50;;
20810;SDS011;10566;52.928;10.522;2023-03-01T10:15:43;9.47;;;4.63;;
20810;SDS011;10566;52.928;10.522;2023-03-01T10:18:13;8.43;;;4.20;;
20810;SDS011;10566;52.928;10.522;2023-03-01T10:20:44;9.63;;;4.30;;
20810;SDS011;10566;52.928;10.522;2023-03-01T10:23:12;7.90;;;3.67;;
20810;SDS011;10566;52.928;10.522;2023-03-01T10:28:16;7.77;;;3.53;;
20810;SDS011;10566;52.928;10.522;2023-03-01T10:30:42;8.10;;;3.50;;
20810;SDS011;10566;52.928;10.522;2023-03-01T10:33:21;6.63;;;3.63;;
20810;SDS011;10566;52.928;10.522;2023-03-01T10:35:49;6.70;;;3.53;;
20810;SDS011;10566;52.928;10.522;2023-03-01T10:38:15;6.50;;;3.53;;
20810;SDS011;10566;52.928;10.522;2023-03-01T10:40:52;7.60;;;3.07;;
20810;SDS011;10566;52.928;10.522;2023-03-01T10:43:19;7.70;;;3.60;;
20810;SDS011;10566;52.928;10.522;2023-03-01T10:45:45;9.13;;;3.40;;
20810;SDS011;10566;52.928;10.522;2023-03-01T10:48:22;7.07;;;3.20;;
20810;SDS011;10566;52.928;10.522;2023-03-01T10:53:30;7.80;;;3.50;;
20810;SDS011;10566;52.928;10.522;2023-03-01T10:58:29;6.90;;;3.53;;
20810;SDS011;10566;52.928;10.522;2023-03-01T11:01:00;8.63;;;3.53;;
20810;SDS011;10566;52.928;10.522;2023-03-01T11:03:31;7.50;;;3.27;;
20810;SDS011;10566;52.928;10.522;2023-03-01T11:06:02;8.13;;;3.30;;
20810;SDS011;10566;52.928;10.522;2023-03-01T11:11:05;7.03;;;3.23;;
20810;SDS011;10566;52.928;10.522;2023-03-01T11:13:31;8.53;;;3.37;;
20810;SDS011;10566;52.928;10.522;2023-03-01T11:16:01;7.27;;;3.30;;
20810;SDS011;10566;52.928;10.522;2023-03-01T11:18:27;10.47;;;3.90;;
20810;SDS011;10566;52.928;10.522;2023-03-01T11:20:54;9.87;;;3.70;;
20810;SDS011;10566;52.928;10.522;2023-03-01T11:23:21;7.63;;;3.40;;
20810;SDS011;10566;52.928;10.522;2023-03-01T11:25:54;9.07;;;3.87;;
20810;SDS011;10566;52.928;10.522;2023-03-01T11:28:21;8.57;;;4.20;;
20810;SDS011;10566;52.928;10.522;2023-03-01T11:30:50;9.73;;;4.50;;
20810;SDS011;10566;52.928;10.522;2023-03-01T11:33:20;8.57;;;3.80;;
20810;SDS011;10566;52.928;10.522;2023-03-01T11:35:57;11.67;;;4.60;;
20810;SDS011;10566;52.928;10.522;2023-03-01T11:38:26;9.73;;;4.60;;
20810;SDS011;10566;52.928;10.522;2023-03-01T11:43:33;8.77;;;4.50;;
20810;SDS011;10566;52.928;10.522;2023-03-01T11:46:06;7.13;;;3.83;;
20810;SDS011;10566;52.928;10.522;2023-03-01T11:48:45;8.43;;;4.57;;
20810;SDS011;10566;52.928;10.522;2023-03-01T11:51:17;8.47;;;4.70;;
20810;SDS011;10566;52.928;10.522;2023-03-01T11:56:27;9.10;;;4.70;;
20810;SDS011;10566;52.928;10.522;2023-03-01T12:11:36;10.30;;;4.43;;
20810;SDS011;10566;52.928;10.522;2023-03-01T12:16:47;13.23;;;7.50;;
20810;SDS011;10566;52.928;10.522;2023-03-01T12:27:15;9.90;;;6.27;;
20810;SDS011;10566;52.928;10.522;2023-03-01T12:29:51;12.43;;;6.80;;
20810;SDS011;10566;52.928;10.522;2023-03-01T12:35:02;11.30;;;5.50;;
20810;SDS011;10566;52.928;10.522;2023-03-01T12:40:33;8.47;;;4.90;;
20810;SDS011;10566;52.928;10.522;2023-03-01T12:45:48;11.00;;;4.93;;
20810;SDS011;10566;52.928;10.522;2023-03-01T12:48:23;8.60;;;4.97;;
20810;SDS011;10566;52.928;10.522;2023-03-01T12:50:53;8.53;;;3.90;;
20810;SDS011;10566;52.928;10.522;2023-03-01T12:53:24;12.20;;;4.43;;
20810;SDS011;10566;52.928;10.522;2023-03-01T12:55:52;8.70;;;4.77;;
20810;SDS011;10566;52.928;10.522;2023-03-01T13:06:11;8.87;;;4.83;;
20810;SDS011;10566;52.928;10.522;2023-03-01T13:08:45;9.93;;;5.17;;
20810;SDS011;10566;52.928;10.522;2023-03-01T13:11:17;8.57;;;5.00;;
20810;SDS011;10566;52.928;10.522;2023-03-01T13:13:44;9.13;;;5.00;;
20810;SDS011;10566;52.928;10.522;2023-03-01T13:18:46;10.03;;;5.10;;
20810;SDS011;10566;52.928;10.522;2023-03-01T13:21:12;11.20;;;4.90;;
20810;SDS011;10566;52.928;10.522;2023-03-01T13:23:38;10.27;;;4.90;;
20810;SDS011;10566;52.928;10.522;2023-03-01T13:26:15;9.00;;;5.37;;
20810;SDS011;10566;52.928;10.522;2023-03-01T13:33:49;9.23;;;5.17;;
20810;SDS011;10566;52.928;10.522;2023-03-01T13:39:18;10.33;;;5.57;;
20810;SDS011;10566;52.928;10.522;2023-03-01T13:41:56;9.13;;;5.30;;
20810;SDS011;10566;52.928;10.522;2023-03-01T13:46:49;10.60;;;5.60;;
20810;SDS011;10566;52.928;10.522;2023-03-01T13:49:16;11.53;;;5.50;;
20810;SDS011;10566;52.928;10.522;2023-03-01T13:51:46;10.10;;;5.37;;
20810;SDS011;10566;52.928;10.522;2023-03-01T13:54:12;11.47;;;5.80;;
20810;SDS011;10566;52.928;10.522;2023-03-01T13:56:40;11.53;;;6.03;;
20810;SDS011;10566;52.928;10.522;2023-03-01T14:01:38;11.53;;;5.70;;
20810;SDS011;10566;52.928;10.522;2023-03-01T14:04:18;12.23;;;5.97;;
20810;SDS011;10566;52.928;10.522;2023-03-01T14:06:44;9.83;;;5.93;;
20810;SDS011;10566;52.928;10.522;2023-03-01T14:09:18;10.07;;;6.17;;
20810;SDS011;10566;52.928;10.522;2023-03-01T14:19:18;10.93;;;6.40;;
20810;SDS011;10566;52.928;10.522;2023-03-01T14:21:49;12.37;;;6.60;;
20810;SDS011;10566;52.928;10.522;2023-03-01T14:24:25;13.40;;;6.97;;
20810;SDS011;10566;52.928;10.522;2023-03-01T14:26:52;12.40;;;7.03;;
20810;SDS011;10566;52.928;10.522;2023-03-01T14:29:29;13.03;;;6.93;;
20810;SDS011;10566;52.928;10.522;2023-03-01T14:32:08;13.20;;;7.10;;
20810;SDS011;10566;52.928;10.522;2023-03-01T14:34:34;14.03;;;7.67;;
20810;SDS011;10566;52.928;10.522;2023-03-01T14:39:45;14.77;;;7.70;;
20810;SDS011;10566;52.928;10.522;2023-03-01T14:42:11;13.37;;;7.93;;
20810;SDS011;10566;52.928;10.522;2023-03-01T14:44:37;12.87;;;7.60;;
20810;SDS011;10566;52.928;10.522;2023-03-01T14:47:04;13.47;;;7.80;;
20810;SDS011;10566;52.928;10.522;2023-03-01T14:49:30;21.53;;;11.67;;
20810;SDS011;10566;52.928;10.522;2023-03-01T14:54:27;15.33;;;8.57;;
20810;SDS011;10566;52.928;10.522;2023-03-01T14:56:58;14.83;;;9.10;;
20810;SDS011;10566;52.928;10.522;2023-03-01T14:59:25;18.03;;;9.10;;
20810;SDS011;10566;52.928;10.522;2023-03-01T15:01:51;17.63;;;9.23;;
20810;SDS011;10566;52.928;10.522;2023-03-01T15:04:19;18.43;;;9.93;;
20810;SDS011;10566;52.928;10.522;2023-03-01T15:06:45;20.30;;;10.13;;
20810;SDS011;10566;52.928;10.522;2023-03-01T15:09:13;20.83;;;9.67;;
20810;SDS011;10566;52.928;10.522;2023-03-01T15:11:40;17.83;;;9.77;;
20810;SDS011;10566;52.928;10.522;2023-03-01T15:16:54;16.17;;;9.73;;
20810;SDS011;10566;52.928;10.522;2023-03-01T15:19:20;17.47;;;9.63;;
20810;SDS011;10566;52.928;10.522;2023-03-01T15:21:48;17.00;;;9.73;;
20810;SDS011;10566;52.928;10.522;2023-03-01T15:24:20;22.00;;;12.37;;
20810;SDS011;10566;52.928;10.522;2023-03-01T15:26:58;18.07;;;10.80;;
20810;SDS011;10566;52.928;10.522;2023-03-01T15:29:31;18.23;;;9.13;;
20810;SDS011;10566;52.928;10.522;2023-03-01T15:34:25;19.23;;;10.10;;
20810;SDS011;10566;52.928;10.522;2023-03-01T15:36:52;18.40;;;9.93;;
20810;SDS011;10566;52.928;10.522;2023-03-01T15:44:37;16.03;;;9.10;;
20810;SDS011;10566;52.928;10.522;2023-03-01T15:47:05;16.17;;;9.40;;
20810;SDS011;10566;52.928;10.522;2023-03-01T15:52:00;16.47;;;9.37;;
20810;SDS011;10566;52.928;10.522;2023-03-01T15:54:26;15.87;;;8.67;;
20810;SDS011;10566;52.928;10.522;2023-03-01T15:56:53;19.43;;;9.53;;
20810;SDS011;10566;52.928;10.522;2023-03-01T15:59:19;18.50;;;10.17;;
20810;SDS011;10566;52.928;10.522;2023-03-01T16:01:47;15.73;;;9.53;;
20810;SDS011;10566;52.928;10.522;2023-03-01T16:04:13;16.37;;;9.30;;
20810;SDS011;10566;52.928;10.522;2023-03-01T16:06:45;14.73;;;9.67;;
20810;SDS011;10566;52.928;10.522;2023-03-01T16:09:19;16.70;;;9.93;;
20810;SDS011;10566;52.928;10.522;2023-03-01T16:11:45;16.47;;;10.10;;
20810;SDS011;10566;52.928;10.522;2023-03-01T16:14:11;16.20;;;9.07;;
20810;SDS011;10566;52.928;10.522;2023-03-01T16:16:37;14.60;;;8.97;;
20810;SDS011;10566;52.928;10.522;2023-03-01T16:19:03;16.03;;;9.20;;
20810;SDS011;10566;52.928;10.522;2023-03-01T16:21:29;18.53;;;8.83;;
20810;SDS011;10566;52.928;10.522;2023-03-01T16:23:55;15.10;;;9.43;;
20810;SDS011;10566;52.928;10.522;2023-03-01T16:26:21;16.27;;;9.47;;
20810;SDS011;10566;52.928;10.522;2023-03-01T16:28:47;17.30;;;10.77;;
20810;SDS011;10566;52.928;10.522;2023-03-01T16:31:17;21.33;;;11.17;;
20810;SDS011;10566;52.928;10.522;2023-03-01T16:33:44;18.10;;;10.93;;